Saunders, Virginia
Current Conditions -  °F | °C
As of 5:54 PM on Tuesday 21 Oct 2014 (Local Time) from KRIC Reporting Station
Broken Clouds Broken Clouds  
Wind Chill: 67°   Ceiling: 11000
Heat Index: 67°   Visibility: 10mi
Dew Point: 51°   Wind: 0mph
Humidity: 57%   Direction: NA
Pressure: 29.81"   Gusts: NA
Location:  37.5498°N, 77.4598°W
Report Text: KRIC 212154Z 00000KT 10SM SCT055 BKN110 BKN250 19/11 A2981 RMK AO2 SLP099 T01940106
Loading
Personal Weather Stations






























Interactive Weather Map
Tropical Storm Tracking
New forecast layout! Learn more

10-Day Weather Forecast

Advertisements
Track Severe Weather on mobile